Time;durP1;ratioP1;P1;durP2;ratioP2;P2;SDS_P1;SDS_P2;PMS_P1;PMS_P2;Temp;Humidity;BMP_temperature;BMP_pressure;BME280_temperature;BME280_humidity;BME280_pressure;Samples;Min_cycle;Max_cycle;Signal;HPM_P1;HPM_P2
2022/10/28 00:00:30;;;;;;;1.48;0.30;;;23.70;99.90;;;;;;4943745;28;20231;-78
2022/10/28 00:03:03;;;;;;;1.63;0.40;;;23.70;99.90;;;;;;4937081;29;20208;-78
2022/10/28 00:05:37;;;;;;;2.63;0.50;;;23.70;99.90;;;;;;4947430;29;20230;-76
2022/10/28 00:08:08;;;;;;;2.95;0.40;;;23.90;99.90;;;;;;4936399;29;20197;-77
2022/10/28 00:10:38;;;;;;;24.83;17.60;;;24.00;99.90;;;;;;4938238;28;20201;-78
2022/10/28 00:13:11;;;;;;;7.55;5.05;;;24.00;99.90;;;;;;4940509;29;20688;-79
2022/10/28 00:15:42;;;;;;;3.40;1.10;;;23.90;99.90;;;;;;4940237;29;20203;-82
2022/10/28 00:18:13;;;;;;;1.95;0.88;;;23.90;99.90;;;;;;4945122;29;20215;-79
2022/10/28 00:20:43;;;;;;;3.20;0.70;;;23.90;99.90;;;;;;4942323;28;20220;-75
2022/10/28 00:23:14;;;;;;;1.85;0.63;;;24.00;99.90;;;;;;4942996;28;20211;-79
2022/10/28 00:25:45;;;;;;;2.13;0.45;;;24.00;99.90;;;;;;4937921;29;20209;-83
2022/10/28 00:28:17;;;;;;;2.03;0.32;;;24.10;99.90;;;;;;4937393;29;20201;-80
2022/10/28 00:30:48;;;;;;;1.05;0.40;;;24.10;99.90;;;;;;4942870;28;20212;-79
2022/10/28 00:33:19;;;;;;;3.92;0.50;;;24.00;99.90;;;;;;4940590;29;20228;-77
2022/10/28 00:35:50;;;;;;;1.00;0.40;;;23.90;99.90;;;;;;4944950;29;20239;-78
2022/10/28 00:38:20;;;;;;;1.80;0.60;;;24.10;99.90;;;;;;4946918;29;20293;-75
2022/10/28 00:40:51;;;;;;;0.68;0.30;;;24.20;99.90;;;;;;4951663;29;20212;-81
2022/10/28 00:46:28;;;;;;;0.93;0.30;;;24.10;99.90;;;;;;5107225;27;20573;-79
2022/10/28 00:49:04;;;;;;;1.52;0.30;;;24.40;99.90;;;;;;5101731;28;20566;-77
2022/10/28 00:51:37;;;;;;;1.63;0.45;;;24.40;99.90;;;;;;5082238;28;20192;-73
2022/10/28 00:54:09;;;;;;;1.08;0.47;;;24.40;99.90;;;;;;5092637;28;20199;-78
2022/10/28 00:56:42;;;;;;;0.63;0.35;;;24.40;99.90;;;;;;5098373;28;20638;-77
2022/10/28 00:59:17;;;;;;;0.73;0.40;;;24.40;99.90;;;;;;5110917;28;20562;-79
2022/10/28 01:01:49;;;;;;;2.35;0.40;;;24.60;99.90;;;;;;5081560;28;20195;-72
2022/10/28 01:04:21;;;;;;;2.00;0.40;;;24.70;99.90;;;;;;5099296;28;20212;-79
2022/10/28 01:06:53;;;;;;;0.73;0.43;;;24.80;99.90;;;;;;5110393;28;20191;-74
2022/10/28 01:09:24;;;;;;;2.05;0.35;;;24.80;99.90;;;;;;5096084;28;20652;-79
2022/10/28 01:12:02;;;;;;;3.03;0.50;;;24.80;99.90;;;;;;5097529;28;20623;-78
2022/10/28 01:14:49;;;;;;;3.15;0.50;;;24.80;99.90;;;;;;5104272;28;20199;-75
2022/10/28 01:17:32;;;;;;;0.57;0.40;;;24.80;99.90;;;;;;5070147;28;20655;-80
2022/10/28 01:20:41;;;;;;;6.10;3.83;;;24.80;99.90;;;;;;5074736;28;20438;-78
2022/10/28 01:23:17;;;;;;;5.63;1.80;;;24.80;99.90;;;;;;5087315;28;20200;-75
2022/10/28 01:26:15;;;;;;;1.10;0.70;;;24.80;99.90;;;;;;5104344;28;20210;-74
2022/10/28 01:29:19;;;;;;;0.50;0.45;;;24.80;99.90;;;;;;5094244;28;20199;-77
2022/10/28 01:31:55;;;;;;;0.57;0.40;;;24.70;99.90;;;;;;5090008;28;20220;-70
2022/10/28 01:34:32;;;;;;;1.85;0.40;;;24.70;99.90;;;;;;5095938;28;20666;-75
2022/10/28 01:37:14;;;;;;;1.35;0.50;;;24.90;99.90;;;;;;5096462;28;20188;-80
2022/10/28 01:39:51;;;;;;;0.88;0.30;;;24.80;99.90;;;;;;5088285;28;20187;-73
2022/10/28 01:42:29;;;;;;;1.45;0.40;;;24.60;99.90;;;;;;5099948;28;20691;-77
2022/10/28 01:45:04;;;;;;;2.25;0.50;;;24.50;99.90;;;;;;5089530;28;20238;-78
2022/10/28 01:47:44;;;;;;;2.30;0.38;;;24.50;99.90;;;;;;5086682;28;20235;-75
2022/10/28 01:50:20;;;;;;;0.57;0.30;;;24.50;99.90;;;;;;5109986;28;20197;-76
2022/10/28 01:52:53;;;;;;;2.72;0.50;;;24.60;99.90;;;;;;5106360;28;20205;-75
2022/10/28 01:55:28;;;;;;;0.73;0.30;;;24.60;99.90;;;;;;5086609;28;20557;-76
2022/10/28 01:58:01;;;;;;;0.85;0.30;;;24.60;99.90;;;;;;5072587;28;20198;-76
2022/10/28 02:00:33;;;;;;;1.95;0.35;;;24.40;99.90;;;;;;5073194;28;20193;-79
2022/10/28 02:03:10;;;;;;;2.83;0.50;;;24.40;99.90;;;;;;5071324;28;20289;-74
2022/10/28 02:05:43;;;;;;;1.27;0.28;;;24.40;99.90;;;;;;5072466;28;20221;-77
2022/10/28 02:08:51;;;;;;;0.40;0.30;;;24.60;99.90;;;;;;5092983;28;20211;-79
2022/10/28 02:11:43;;;;;;;0.95;0.30;;;24.50;99.90;;;;;;5083549;28;20203;-76
2022/10/28 02:14:27;;;;;;;1.52;0.43;;;24.40;99.90;;;;;;5080307;28;20196;-83
2022/10/28 02:17:03;;;;;;;1.17;0.28;;;24.40;99.90;;;;;;5075686;28;20189;-79
2022/10/28 02:19:46;;;;;;;0.98;0.30;;;24.40;99.90;;;;;;5074746;28;20200;-82
2022/10/28 02:22:23;;;;;;;5.38;0.70;;;24.40;99.90;;;;;;5074846;28;20197;-78
2022/10/28 02:25:09;;;;;;;2.25;0.45;;;24.40;99.90;;;;;;5075606;28;20223;-76
2022/10/28 02:27:46;;;;;;;1.38;0.32;;;24.40;99.90;;;;;;5075179;28;20193;-79
2022/10/28 02:30:21;;;;;;;0.63;0.25;;;24.40;99.90;;;;;;5075283;28;20197;-70
2022/10/28 02:32:55;;;;;;;0.20;0.20;;;24.50;99.90;;;;;;5074745;28;20268;-76
2022/10/28 02:35:33;;;;;;;1.00;0.47;;;24.50;99.90;;;;;;5062803;28;20196;-70
2022/10/28 02:38:08;;;;;;;1.45;0.30;;;24.40;99.90;;;;;;5055720;28;20190;-78
2022/10/28 02:40:41;;;;;;;1.70;0.32;;;24.40;99.90;;;;;;5074579;28;20674;-78
2022/10/28 02:43:15;;;;;;;1.40;0.20;;;24.40;99.90;;;;;;5093482;28;20200;-75
2022/10/28 02:45:49;;;;;;;1.65;0.20;;;24.50;99.90;;;;;;5072695;28;20240;-79
2022/10/28 02:48:23;;;;;;;1.88;0.30;;;24.50;99.90;;;;;;5075184;28;20197;-75
2022/10/28 02:51:02;;;;;;;2.67;0.68;;;24.60;99.90;;;;;;5071261;28;20189;-78
2022/10/28 02:53:35;;;;;;;2.75;0.40;;;24.60;99.90;;;;;;5076120;28;20197;-75
2022/10/28 02:56:08;;;;;;;1.63;0.32;;;24.60;99.90;;;;;;5065384;28;20198;-78
2022/10/28 02:58:42;;;;;;;1.10;0.30;;;24.60;99.90;;;;;;5074659;28;20196;-73
2022/10/28 03:01:12;;;;;;;2.85;0.40;;;24.70;99.90;;;;;;5085947;28;20203;-76
2022/10/28 03:03:43;;;;;;;0.77;0.30;;;24.70;99.90;;;;;;5090289;28;20339;-76
2022/10/28 03:06:16;;;;;;;0.60;0.20;;;24.80;99.90;;;;;;5077606;28;20223;-77
2022/10/28 03:08:47;;;;;;;2.35;0.30;;;24.70;99.90;;;;;;5090918;28;20206;-76
2022/10/28 03:11:18;;;;;;;0.40;0.30;;;24.70;99.90;;;;;;5076002;28;20197;-74
2022/10/28 03:13:49;;;;;;;0.40;0.30;;;24.80;99.90;;;;;;5070785;28;20192;-74
2022/10/28 03:16:20;;;;;;;0.60;0.20;;;24.90;99.90;;;;;;5075874;28;20207;-78
2022/10/28 03:18:51;;;;;;;1.33;0.40;;;24.80;99.90;;;;;;5074136;28;20199;-73
2022/10/28 03:21:23;;;;;;;0.40;0.30;;;24.60;99.90;;;;;;5070132;28;20195;-75
2022/10/28 03:23:54;;;;;;;0.70;0.30;;;24.40;99.90;;;;;;5074218;28;20211;-74
2022/10/28 03:26:25;;;;;;;3.53;0.43;;;24.30;99.90;;;;;;5078394;28;20691;-71
2022/10/28 03:28:56;;;;;;;0.93;0.20;;;24.30;99.90;;;;;;5064508;28;20193;-74
2022/10/28 03:31:26;;;;;;;1.23;0.30;;;24.30;99.90;;;;;;5073705;28;20213;-77
2022/10/28 03:33:57;;;;;;;0.57;0.20;;;24.30;99.90;;;;;;5074010;28;20197;-74
2022/10/28 03:36:30;;;;;;;1.65;0.40;;;24.20;99.90;;;;;;5074088;28;20199;-73
2022/10/28 03:39:01;;;;;;;0.57;0.30;;;24.40;99.90;;;;;;5074199;28;20196;-73
2022/10/28 03:41:31;;;;;;;0.85;0.20;;;24.70;99.90;;;;;;5073782;28;20546;-75
2022/10/28 03:44:02;;;;;;;1.35;0.20;;;25.00;99.90;;;;;;5079680;28;20199;-75
2022/10/28 03:46:33;;;;;;;2.15;0.28;;;25.10;99.90;;;;;;5073135;28;20239;-75
2022/10/28 03:49:04;;;;;;;0.90;0.40;;;25.10;99.90;;;;;;5073184;28;20203;-76
2022/10/28 03:51:36;;;;;;;1.95;0.73;;;25.20;99.90;;;;;;5075109;28;20192;-74
2022/10/28 03:54:07;;;;;;;0.77;0.30;;;25.20;99.90;;;;;;5075880;28;20197;-75
2022/10/28 03:56:39;;;;;;;1.13;0.22;;;25.00;99.90;;;;;;5073596;28;20185;-76
2022/10/28 03:59:10;;;;;;;0.88;0.22;;;24.90;99.90;;;;;;5072517;28;20197;-74
2022/10/28 04:01:41;;;;;;;0.85;0.20;;;25.10;99.90;;;;;;5071259;28;20280;-78
2022/10/28 04:04:12;;;;;;;2.08;0.43;;;25.20;99.90;;;;;;5089206;28;20279;-75
2022/10/28 04:06:45;;;;;;;1.38;0.40;;;25.40;99.90;;;;;;5088650;28;20213;-75
2022/10/28 04:09:15;;;;;;;1.20;0.30;;;25.40;99.90;;;;;;5074126;28;20196;-76
2022/10/28 04:11:49;;;;;;;2.05;0.32;;;25.50;99.90;;;;;;5072148;28;20292;-75
2022/10/28 04:14:19;;;;;;;0.45;0.28;;;25.50;99.90;;;;;;5072568;28;20200;-76
2022/10/28 04:16:50;;;;;;;1.95;0.30;;;25.50;99.90;;;;;;5068023;28;20202;-75
2022/10/28 04:19:21;;;;;;;4.43;0.88;;;25.30;99.90;;;;;;5064197;28;20276;-79
2022/10/28 04:21:54;;;;;;;0.55;0.30;;;25.20;99.90;;;;;;5063075;28;20193;-73
2022/10/28 04:24:24;;;;;;;1.83;0.30;;;25.20;99.90;;;;;;5073572;28;20200;-76
2022/10/28 04:26:55;;;;;;;1.38;0.30;;;25.20;99.90;;;;;;5069802;28;20250;-78
2022/10/28 04:29:26;;;;;;;0.52;0.30;;;25.00;99.90;;;;;;5072145;28;20192;-76
2022/10/28 04:31:56;;;;;;;1.77;0.40;;;25.00;99.90;;;;;;5065039;28;20217;-78
2022/10/28 04:34:27;;;;;;;1.38;0.30;;;25.00;99.90;;;;;;5065833;28;20196;-77
2022/10/28 04:37:00;;;;;;;0.13;0.10;;;25.10;99.90;;;;;;5069803;28;20189;-76
2022/10/28 04:39:30;;;;;;;1.08;0.30;;;25.20;99.90;;;;;;5067463;28;20239;-78
2022/10/28 04:42:01;;;;;;;1.50;0.30;;;25.20;99.90;;;;;;5063624;28;20210;-80
2022/10/28 04:44:32;;;;;;;2.53;0.20;;;25.10;99.90;;;;;;5073468;28;20746;-75
2022/10/28 04:47:03;;;;;;;2.83;0.22;;;24.90;99.90;;;;;;5076465;28;20225;-78
2022/10/28 04:49:33;;;;;;;0.57;0.20;;;24.90;99.90;;;;;;5072050;28;20229;-82
2022/10/28 04:52:06;;;;;;;1.45;0.30;;;24.80;99.90;;;;;;5070853;28;20677;-78
2022/10/28 04:54:37;;;;;;;1.52;0.20;;;24.80;99.90;;;;;;5072609;28;20640;-79
2022/10/28 04:57:08;;;;;;;1.65;0.22;;;24.60;99.90;;;;;;5072272;28;20215;-80
2022/10/28 04:59:39;;;;;;;1.65;0.35;;;24.70;99.90;;;;;;5072552;28;20195;-81
2022/10/28 05:02:10;;;;;;;0.20;0.10;;;24.70;99.90;;;;;;5072728;28;20238;-78
2022/10/28 05:04:41;;;;;;;0.55;0.20;;;24.70;99.90;;;;;;5071766;28;20181;-79
2022/10/28 05:07:13;;;;;;;0.90;0.20;;;24.70;99.90;;;;;;5071718;28;20700;-77
2022/10/28 05:09:44;;;;;;;0.32;0.20;;;24.70;99.90;;;;;;5067458;28;20272;-81
2022/10/28 05:12:15;;;;;;;1.75;0.30;;;24.60;99.90;;;;;;5072340;28;20268;-79
2022/10/28 05:14:46;;;;;;;1.17;0.20;;;24.50;99.90;;;;;;5072656;28;20545;-79
2022/10/28 05:17:16;;;;;;;1.95;0.20;;;24.50;99.90;;;;;;5072234;28;20618;-78
2022/10/28 05:19:47;;;;;;;0.82;0.30;;;24.50;99.90;;;;;;5072361;28;20648;-79
2022/10/28 05:22:20;;;;;;;0.88;0.40;;;24.50;99.90;;;;;;5072034;28;20559;-79
2022/10/28 05:24:51;;;;;;;2.80;0.35;;;24.60;99.90;;;;;;5070786;28;20284;-78
2022/10/28 05:27:21;;;;;;;0.65;0.30;;;24.70;99.90;;;;;;5067391;28;20212;-79
2022/10/28 05:29:52;;;;;;;1.10;0.20;;;24.60;99.90;;;;;;5072145;28;20196;-79
2022/10/28 05:32:23;;;;;;;0.70;0.30;;;24.60;99.90;;;;;;5073339;28;20570;-80
2022/10/28 05:34:53;;;;;;;0.32;0.17;;;24.60;99.90;;;;;;5075964;28;20193;-81
2022/10/28 05:37:26;;;;;;;0.65;0.20;;;24.50;99.90;;;;;;5074589;28;20196;-82
2022/10/28 05:39:57;;;;;;;0.40;0.40;;;24.50;99.90;;;;;;5073063;28;20212;-80
2022/10/28 05:42:28;;;;;;;1.15;0.50;;;24.40;99.90;;;;;;5075637;28;20185;-81
2022/10/28 05:44:58;;;;;;;0.82;0.20;;;24.40;99.90;;;;;;5068292;28;20233;-80
2022/10/28 05:47:29;;;;;;;1.15;0.45;;;24.30;99.90;;;;;;5075639;28;20239;-79
2022/10/28 05:50:00;;;;;;;0.90;0.20;;;24.30;99.90;;;;;;5073397;28;20189;-77
2022/10/28 05:52:33;;;;;;;0.50;0.22;;;24.30;99.90;;;;;;5074906;28;20185;-80
2022/10/28 05:55:03;;;;;;;1.48;0.38;;;24.40;99.90;;;;;;5073247;28;20350;-74
2022/10/28 05:57:36;;;;;;;0.35;0.20;;;24.50;99.90;;;;;;5075439;28;20185;-79
2022/10/28 06:00:08;;;;;;;0.63;0.25;;;24.50;99.90;;;;;;5075075;28;20191;-83
2022/10/28 06:02:38;;;;;;;0.57;0.20;;;24.40;99.90;;;;;;5073420;28;20193;-81
2022/10/28 06:05:09;;;;;;;1.55;0.20;;;24.30;99.90;;;;;;5074872;28;20563;-80
2022/10/28 06:07:42;;;;;;;1.48;0.30;;;24.30;99.90;;;;;;5074826;28;20215;-79
2022/10/28 06:10:14;;;;;;;3.50;0.30;;;24.30;99.90;;;;;;5074642;28;20272;-80
2022/10/28 06:12:44;;;;;;;0.85;0.30;;;24.40;99.90;;;;;;5074879;28;20185;-78
2022/10/28 06:15:15;;;;;;;1.13;0.22;;;24.30;99.90;;;;;;5073427;28;20192;-74
2022/10/28 06:17:49;;;;;;;3.58;0.30;;;24.30;99.90;;;;;;5072394;28;20289;-79
2022/10/28 06:20:21;;;;;;;0.75;0.20;;;24.30;99.90;;;;;;5069940;28;20197;-77
2022/10/28 06:22:55;;;;;;;0.35;0.20;;;24.30;99.80;;;;;;5078965;28;20200;-77
2022/10/28 06:25:26;;;;;;;0.68;0.30;;;24.10;99.90;;;;;;5080489;28;20678;-76
2022/10/28 06:27:58;;;;;;;0.32;0.20;;;24.00;99.90;;;;;;5071944;28;20231;-77
2022/10/28 06:30:30;;;;;;;3.33;0.30;;;24.00;99.90;;;;;;5072123;28;20217;-78
2022/10/28 06:33:01;;;;;;;1.42;0.20;;;23.90;99.90;;;;;;5075739;28;20196;-79
2022/10/28 06:35:32;;;;;;;0.40;0.20;;;23.90;99.90;;;;;;5073390;28;20200;-78
2022/10/28 06:38:04;;;;;;;2.22;0.30;;;23.80;99.90;;;;;;5070728;28;20215;-75
2022/10/28 06:40:35;;;;;;;4.40;0.40;;;23.80;99.90;;;;;;5072817;28;20211;-83
2022/10/28 06:43:07;;;;;;;0.75;0.20;;;23.70;99.90;;;;;;5072251;28;20201;-79
2022/10/28 06:45:38;;;;;;;0.77;0.40;;;23.70;99.90;;;;;;5072509;28;20565;-77
2022/10/28 06:48:10;;;;;;;1.08;0.30;;;23.70;99.90;;;;;;5071957;28;20207;-73
2022/10/28 06:50:40;;;;;;;0.63;0.30;;;23.70;99.90;;;;;;5075906;28;20562;-78
2022/10/28 06:53:14;;;;;;;0.63;0.30;;;23.70;99.90;;;;;;5076491;28;20197;-76
2022/10/28 06:55:47;;;;;;;0.88;0.28;;;23.70;99.90;;;;;;5078770;28;20186;-77
2022/10/28 06:58:18;;;;;;;0.80;0.20;;;23.60;99.90;;;;;;5072240;28;20199;-77
2022/10/28 07:00:49;;;;;;;1.00;0.30;;;23.50;99.90;;;;;;5077888;28;20199;-84
2022/10/28 07:03:19;;;;;;;1.42;0.40;;;23.40;99.90;;;;;;5075392;28;20203;-81
2022/10/28 07:05:51;;;;;;;1.42;0.28;;;23.30;99.90;;;;;;5080146;28;20609;-78
2022/10/28 07:08:24;;;;;;;0.45;0.20;;;23.30;99.90;;;;;;5072927;28;20204;-79
2022/10/28 07:10:58;;;;;;;0.75;0.40;;;23.10;99.90;;;;;;5076624;28;20766;-75
2022/10/28 07:13:29;;;;;;;1.20;0.10;;;22.90;99.90;;;;;;5073689;28;20655;-84
2022/10/28 07:16:01;;;;;;;1.17;0.20;;;22.80;99.90;;;;;;5071464;28;20636;-74
2022/10/28 07:18:33;;;;;;;0.85;0.20;;;22.70;99.90;;;;;;5083033;28;20565;-80
2022/10/28 07:21:04;;;;;;;0.60;0.30;;;22.70;99.90;;;;;;5072930;28;20246;-77
2022/10/28 07:23:37;;;;;;;0.60;0.35;;;22.70;99.90;;;;;;5073709;28;20185;-80
2022/10/28 07:26:07;;;;;;;0.75;0.30;;;22.70;99.90;;;;;;5075871;28;20197;-77
2022/10/28 07:28:39;;;;;;;0.30;0.20;;;22.70;99.90;;;;;;5073558;28;20197;-75
2022/10/28 07:31:09;;;;;;;1.75;0.30;;;22.70;99.90;;;;;;5076231;28;20295;-72
2022/10/28 07:33:40;;;;;;;1.20;0.22;;;22.60;99.90;;;;;;5069811;28;20219;-72
2022/10/28 07:36:12;;;;;;;0.70;0.30;;;22.60;99.90;;;;;;5072624;28;20189;-72
2022/10/28 07:38:44;;;;;;;0.20;0.20;;;22.60;99.90;;;;;;5079099;28;20196;-73
2022/10/28 07:41:15;;;;;;;0.45;0.30;;;22.60;99.90;;;;;;5073419;28;20200;-78
2022/10/28 07:43:46;;;;;;;0.20;0.20;;;22.70;99.90;;;;;;5074451;28;20193;-72
2022/10/28 07:46:17;;;;;;;1.02;0.40;;;22.60;99.90;;;;;;5072828;28;20232;-73
2022/10/28 07:48:47;;;;;;;1.05;0.30;;;22.60;99.90;;;;;;5072316;28;20189;-75
2022/10/28 07:51:18;;;;;;;1.23;0.40;;;22.50;99.90;;;;;;5072585;28;20196;-72
2022/10/28 07:53:51;;;;;;;0.52;0.20;;;22.40;99.90;;;;;;5072117;28;20221;-74
2022/10/28 07:56:22;;;;;;;0.35;0.30;;;22.30;99.90;;;;;;5068988;28;20192;-72
2022/10/28 07:58:54;;;;;;;1.13;0.40;;;22.20;99.90;;;;;;5072780;28;20203;-73
2022/10/28 08:01:25;;;;;;;0.60;0.40;;;22.10;99.90;;;;;;5072207;28;20658;-84
2022/10/28 08:03:55;;;;;;;1.35;0.40;;;22.00;99.90;;;;;;5072951;28;20217;-79
2022/10/28 08:06:26;;;;;;;0.52;0.50;;;21.90;99.90;;;;;;5072285;28;20205;-76
2022/10/28 08:08:59;;;;;;;1.95;0.50;;;21.90;99.90;;;;;;5072626;28;20185;-78
2022/10/28 08:11:30;;;;;;;2.42;0.40;;;21.90;99.90;;;;;;5072454;28;20279;-79
2022/10/28 08:14:03;;;;;;;1.50;0.35;;;21.80;99.90;;;;;;5069219;28;20220;-76
2022/10/28 08:16:34;;;;;;;1.17;0.40;;;21.70;99.90;;;;;;5067435;28;20275;-77
2022/10/28 08:19:05;;;;;;;0.63;0.40;;;21.70;99.90;;;;;;5072696;28;20272;-77
2022/10/28 08:21:36;;;;;;;1.23;0.40;;;21.60;99.90;;;;;;5069905;28;20189;-77
2022/10/28 08:24:09;;;;;;;0.90;0.38;;;21.60;99.90;;;;;;5072556;28;20613;-78
2022/10/28 08:26:40;;;;;;;2.40;0.60;;;21.60;99.90;;;;;;5073171;28;20626;-78
2022/10/28 08:29:12;;;;;;;1.05;0.38;;;21.50;99.90;;;;;;5072515;28;20193;-79
2022/10/28 08:31:43;;;;;;;1.73;0.40;;;21.40;99.90;;;;;;5070008;28;20719;-79
2022/10/28 08:34:14;;;;;;;1.73;0.40;;;21.40;99.90;;;;;;5069747;28;20205;-78
2022/10/28 08:36:45;;;;;;;1.98;0.40;;;21.30;99.90;;;;;;5072584;28;20623;-80
2022/10/28 08:39:17;;;;;;;1.70;0.50;;;21.30;99.90;;;;;;5072590;28;20552;-78
2022/10/28 08:41:52;;;;;;;0.47;0.30;;;21.30;99.90;;;;;;5067935;28;20197;-78
2022/10/28 08:44:39;;;;;;;1.15;0.60;;;21.20;99.90;;;;;;5071128;28;20216;-80
2022/10/28 08:47:21;;;;;;;1.23;0.57;;;21.20;99.90;;;;;;5070179;28;20308;-77
2022/10/28 08:49:57;;;;;;;1.70;0.50;;;21.20;99.90;;;;;;5067562;28;20211;-76
2022/10/28 08:52:35;;;;;;;1.05;0.80;;;21.10;99.90;;;;;;5071853;28;20196;-79
2022/10/28 08:55:13;;;;;;;1.60;1.13;;;21.10;99.90;;;;;;5073758;28;20271;-80
2022/10/28 08:57:49;;;;;;;1.60;0.60;;;21.00;99.90;;;;;;5077994;28;20188;-76
2022/10/28 09:00:24;;;;;;;0.80;0.43;;;21.00;99.90;;;;;;5072543;28;20200;-77
2022/10/28 09:03:19;;;;;;;0.77;0.30;;;21.00;99.90;;;;;;5073327;28;20234;-76
2022/10/28 09:05:51;;;;;;;0.47;0.30;;;20.90;99.90;;;;;;5068345;28;20189;-79
2022/10/28 09:08:25;;;;;;;1.05;0.40;;;20.90;99.90;;;;;;5082979;28;20786;-81
2022/10/28 09:11:08;;;;;;;0.98;0.43;;;20.80;99.90;;;;;;5077032;28;20664;-77
2022/10/28 09:13:52;;;;;;;0.85;0.30;;;20.80;99.90;;;;;;5070612;28;20603;-76
2022/10/28 09:16:32;;;;;;;1.05;0.50;;;20.80;99.90;;;;;;5086073;28;20275;-72
2022/10/28 09:19:11;;;;;;;2.40;0.45;;;20.80;99.90;;;;;;5089076;28;20203;-77
2022/10/28 09:21:49;;;;;;;0.47;0.40;;;20.70;99.90;;;;;;5072755;28;20201;-76
2022/10/28 09:24:25;;;;;;;1.75;0.40;;;20.70;99.90;;;;;;5080680;28;20203;-72
2022/10/28 09:27:03;;;;;;;0.93;0.30;;;20.70;99.90;;;;;;5089256;28;20691;-71
2022/10/28 09:29:44;;;;;;;2.35;0.35;;;20.70;99.90;;;;;;5096782;28;20192;-76
2022/10/28 09:32:23;;;;;;;0.65;0.40;;;20.60;99.90;;;;;;5075839;28;20259;-73
2022/10/28 09:35:00;;;;;;;4.32;0.52;;;20.60;99.90;;;;;;5083709;28;20192;-73
2022/10/28 09:37:34;;;;;;;1.33;0.50;;;20.60;99.90;;;;;;5087142;28;20197;-77
2022/10/28 09:40:14;;;;;;;1.90;0.50;;;20.50;99.90;;;;;;5071614;28;20202;-72
2022/10/28 09:42:52;;;;;;;2.95;0.60;;;20.50;99.90;;;;;;5075641;28;20204;-77
2022/10/28 09:45:27;;;;;;;1.10;0.50;;;20.40;99.90;;;;;;5076030;28;20236;-78
2022/10/28 09:48:02;;;;;;;0.85;0.60;;;20.40;99.90;;;;;;5096938;28;20231;-78
2022/10/28 09:50:34;;;;;;;1.45;0.60;;;20.40;99.90;;;;;;5085703;28;20536;-74
2022/10/28 09:53:20;;;;;;;1.75;0.57;;;20.40;99.90;;;;;;5086121;28;20220;-76
2022/10/28 09:55:52;;;;;;;1.73;0.65;;;20.40;99.90;;;;;;5064542;28;20536;-71
2022/10/28 09:58:28;;;;;;;4.55;0.60;;;20.30;99.90;;;;;;5080478;28;20204;-77
2022/10/28 10:01:00;;;;;;;0.85;0.50;;;20.20;99.90;;;;;;5075244;28;20194;-74
2022/10/28 10:03:33;;;;;;;0.95;0.50;;;20.10;99.90;;;;;;5091852;28;20536;-78
2022/10/28 10:06:13;;;;;;;1.45;0.55;;;20.10;99.90;;;;;;5075798;28;20287;-77
2022/10/28 10:08:45;;;;;;;15.20;11.07;;;20.10;99.90;;;;;;5073989;28;20217;-77
2022/10/28 10:11:27;;;;;;;20.00;14.40;;;20.00;99.90;;;;;;5079124;28;20207;-77
2022/10/28 10:14:04;;;;;;;5.40;2.92;;;20.10;99.90;;;;;;5075018;28;20242;-77
2022/10/28 10:16:42;;;;;;;3.78;2.30;;;20.00;99.90;;;;;;5079933;28;20278;-77
2022/10/28 10:19:13;;;;;;;3.55;1.00;;;20.00;99.90;;;;;;5080415;28;20207;-78
2022/10/28 10:21:48;;;;;;;3.42;1.05;;;19.90;99.90;;;;;;5080598;28;20196;-79
2022/10/28 10:24:32;;;;;;;2.33;1.00;;;19.80;99.90;;;;;;5078315;28;20192;-73
2022/10/28 10:27:05;;;;;;;0.88;0.70;;;19.80;99.90;;;;;;5087971;28;20192;-73
2022/10/28 10:29:39;;;;;;;1.95;0.60;;;19.80;99.90;;;;;;5093136;28;20287;-76
2022/10/28 10:32:20;;;;;;;3.65;0.70;;;19.80;99.90;;;;;;5075702;28;20695;-79
2022/10/28 10:34:58;;;;;;;1.08;0.50;;;19.80;99.90;;;;;;5074588;28;20280;-77
2022/10/28 10:37:34;;;;;;;0.70;0.50;;;19.80;99.90;;;;;;5080338;28;20601;-77
2022/10/28 10:40:20;;;;;;;2.05;0.52;;;19.80;99.90;;;;;;5063763;28;20279;-78
2022/10/28 10:42:52;;;;;;;0.50;0.40;;;19.70;99.90;;;;;;5056642;28;20272;-72
2022/10/28 10:45:27;;;;;;;0.90;0.50;;;19.70;99.90;;;;;;5074983;28;20315;-73
2022/10/28 10:48:17;;;;;;;1.15;0.50;;;19.70;99.90;;;;;;5074453;28;20211;-71
2022/10/28 10:50:50;;;;;;;0.57;0.35;;;19.70;99.90;;;;;;5055043;28;20254;-72
2022/10/28 10:53:25;;;;;;;0.20;0.20;;;19.70;99.90;;;;;;5055386;28;20235;-82
2022/10/28 10:56:00;;;;;;;0.38;0.30;;;19.70;99.90;;;;;;5080353;28;20569;-80
2022/10/28 10:58:33;;;;;;;0.30;0.30;;;19.70;99.90;;;;;;5084178;28;20216;-73
2022/10/28 11:01:08;;;;;;;1.50;0.32;;;19.80;99.90;;;;;;5082375;28;20199;-71
2022/10/28 11:03:47;;;;;;;0.30;0.20;;;19.80;99.90;;;;;;5075229;28;20712;-79
2022/10/28 11:06:25;;;;;;;0.80;0.30;;;19.80;99.90;;;;;;5092611;28;20225;-71
2022/10/28 11:09:01;;;;;;;0.40;0.40;;;19.80;99.90;;;;;;5082559;28;20219;-71
2022/10/28 11:11:42;;;;;;;1.50;0.47;;;19.70;99.90;;;;;;5073815;28;20663;-77
2022/10/28 11:14:25;;;;;;;0.45;0.30;;;19.70;99.90;;;;;;5077611;28;20201;-75
2022/10/28 11:16:59;;;;;;;0.77;0.30;;;19.70;99.90;;;;;;5074603;28;20192;-78
2022/10/28 11:19:33;;;;;;;0.30;0.20;;;19.70;99.90;;;;;;5087421;28;20287;-74
2022/10/28 11:22:28;;;;;;;0.70;0.30;;;19.60;99.90;;;;;;5077267;28;20274;-76
2022/10/28 11:25:22;;;;;;;1.23;0.40;;;19.60;99.90;;;;;;5073046;28;20201;-79
2022/10/28 11:28:05;;;;;;;0.98;0.40;;;19.60;99.90;;;;;;5074599;28;20240;-73
2022/10/28 11:30:48;;;;;;;0.40;0.40;;;19.60;99.90;;;;;;5072486;28;20270;-77
2022/10/28 11:33:23;;;;;;;1.13;0.40;;;19.50;99.90;;;;;;5083656;28;20196;-79
2022/10/28 11:36:03;;;;;;;1.60;0.30;;;19.50;99.90;;;;;;5075766;28;20198;-72
2022/10/28 11:38:45;;;;;;;0.88;0.38;;;19.50;99.90;;;;;;5073842;28;20874;-79
2022/10/28 11:41:29;;;;;;;1.15;0.50;;;19.40;99.90;;;;;;5086818;28;20206;-81
2022/10/28 11:44:01;;;;;;;2.03;0.32;;;19.40;99.90;;;;;;5087737;28;20185;-80
2022/10/28 11:46:47;;;;;;;0.30;0.30;;;19.40;99.90;;;;;;5073056;28;20209;-78
2022/10/28 11:50:00;;;;;;;0.63;0.40;;;19.40;99.90;;;;;;5069913;28;20216;-79
2022/10/28 11:52:43;;;;;;;1.85;0.40;;;19.30;99.90;;;;;;5086406;28;20279;-76
2022/10/28 11:55:27;;;;;;;1.75;0.50;;;19.30;99.90;;;;;;5053887;28;20190;-76
2022/10/28 11:58:12;;;;;;;0.70;0.40;;;19.30;99.90;;;;;;5073664;28;20271;-78
2022/10/28 12:00:59;;;;;;;1.90;0.50;;;19.20;99.90;;;;;;5072706;28;20201;-77
2022/10/28 12:04:00;;;;;;;2.00;0.50;;;19.20;99.90;;;;;;5053835;28;20660;-82
2022/10/28 12:06:47;;;;;;;1.75;0.40;;;19.10;99.90;;;;;;5059223;28;20292;-78
2022/10/28 12:09:25;;;;;;;1.75;0.40;;;19.10;99.90;;;;;;5076127;28;20246;-78
2022/10/28 12:12:10;;;;;;;1.10;0.40;;;19.00;99.90;;;;;;5070966;28;20189;-80
2022/10/28 12:14:50;;;;;;;0.98;0.50;;;19.00;99.90;;;;;;5068948;28;20211;-78
2022/10/28 12:17:33;;;;;;;2.25;0.60;;;19.00;99.90;;;;;;5069506;28;20219;-77
2022/10/28 12:20:13;;;;;;;1.00;0.50;;;18.90;99.90;;;;;;5072074;28;20208;-73
2022/10/28 12:22:50;;;;;;;1.00;0.70;;;18.90;99.90;;;;;;5072521;28;20565;-78
2022/10/28 12:25:25;;;;;;;0.77;0.50;;;18.90;99.90;;;;;;5069989;28;20196;-77
2022/10/28 12:28:01;;;;;;;1.23;0.60;;;18.90;99.90;;;;;;5070515;28;20584;-77
2022/10/28 12:30:34;;;;;;;0.75;0.60;;;18.90;99.90;;;;;;5061407;28;20216;-79
2022/10/28 12:33:09;;;;;;;0.50;0.50;;;18.80;99.90;;;;;;5072034;28;20197;-78
2022/10/28 12:35:42;;;;;;;0.90;0.50;;;18.80;99.90;;;;;;5072953;28;20199;-78
2022/10/28 12:38:21;;;;;;;2.05;0.50;;;18.80;99.90;;;;;;5061550;28;20672;-77
2022/10/28 12:40:57;;;;;;;0.88;0.50;;;18.70;99.90;;;;;;5053140;28;20189;-73
2022/10/28 12:43:34;;;;;;;0.80;0.40;;;18.70;99.90;;;;;;5070122;28;20203;-72
2022/10/28 12:46:05;;;;;;;0.63;0.50;;;18.60;99.90;;;;;;5072983;28;20699;-76
2022/10/28 12:48:44;;;;;;;1.42;0.40;;;18.60;99.90;;;;;;5072205;28;20698;-79
2022/10/28 12:51:20;;;;;;;2.05;0.73;;;18.60;99.90;;;;;;5072606;28;20185;-78
2022/10/28 12:53:57;;;;;;;1.40;0.40;;;18.60;99.90;;;;;;5071915;28;20212;-76
2022/10/28 12:56:32;;;;;;;1.67;0.40;;;18.50;99.90;;;;;;5073418;28;20193;-74
2022/10/28 12:59:11;;;;;;;1.05;0.50;;;18.50;99.90;;;;;;5071192;28;20675;-75
2022/10/28 13:01:44;;;;;;;0.77;0.35;;;18.50;99.90;;;;;;5072580;28;20260;-75
2022/10/28 13:04:15;;;;;;;0.73;0.43;;;18.50;99.90;;;;;;5071856;28;20185;-76
2022/10/28 13:07:13;;;;;;;1.48;0.50;;;18.50;99.90;;;;;;5071802;28;20199;-75
2022/10/28 13:09:56;;;;;;;1.75;0.40;;;18.50;99.90;;;;;;5070090;28;20708;-76
2022/10/28 13:12:54;;;;;;;1.15;0.50;;;18.50;99.90;;;;;;5072333;28;20199;-76
2022/10/28 13:15:51;;;;;;;1.10;0.30;;;18.50;99.90;;;;;;5072064;28;20546;-75
2022/10/28 13:18:39;;;;;;;0.77;0.40;;;18.60;99.90;;;;;;5078481;28;20207;-76
2022/10/28 13:21:22;;;;;;;3.20;0.40;;;18.60;99.90;;;;;;5078202;28;20228;-73
2022/10/28 13:23:59;;;;;;;0.88;0.40;;;18.60;99.90;;;;;;5077637;28;20197;-71
2022/10/28 13:26:33;;;;;;;0.85;0.40;;;18.60;99.90;;;;;;5070586;28;20189;-79
2022/10/28 13:29:07;;;;;;;0.90;0.50;;;18.60;99.90;;;;;;5069019;28;20220;-78